Time;durP1;ratioP1;P1;durP2;ratioP2;P2;SDS_P1;SDS_P2;PMS_P1;PMS_P2;Temp;Humidity;BMP_temperature;BMP_pressure;BME280_temperature;BME280_humidity;BME280_pressure;Samples;Min_cycle;Max_cycle;Signal;HPM_P1;HPM_P2
2022/04/23 00:00:34;;;;;;;2.43;2.23;;;24.20;53.60;;;;;;5054140;28;20474;-93
2022/04/23 00:03:01;;;;;;;2.90;2.70;;;24.30;53.70;;;;;;5053948;28;20446;-94
2022/04/23 00:05:29;;;;;;;2.47;2.27;;;24.20;53.60;;;;;;5054147;28;20528;-93
2022/04/23 00:07:56;;;;;;;2.40;2.30;;;24.20;53.60;;;;;;5053832;28;20488;-86
2022/04/23 00:10:23;;;;;;;2.27;2.17;;;24.20;53.60;;;;;;5053536;28;20955;-88
2022/04/23 00:12:50;;;;;;;2.13;2.03;;;24.20;53.60;;;;;;5054119;28;20442;-93
2022/04/23 00:15:17;;;;;;;2.50;2.40;;;24.20;53.60;;;;;;5054063;28;20445;-94
2022/04/23 00:17:47;;;;;;;2.27;2.17;;;24.20;53.60;;;;;;5053948;28;20461;-89
2022/04/23 00:20:13;;;;;;;2.20;2.10;;;24.20;53.60;;;;;;5054350;28;20446;-90
2022/04/23 00:22:41;;;;;;;2.87;2.67;;;24.20;53.60;;;;;;5054067;28;20481;-87
2022/04/23 00:25:09;;;;;;;2.77;2.57;;;24.20;53.60;;;;;;5053975;28;20442;-93
2022/04/23 00:27:36;;;;;;;2.03;1.93;;;24.20;53.60;;;;;;5053702;28;20468;-87
2022/04/23 00:30:03;;;;;;;2.30;2.10;;;24.20;53.60;;;;;;5053934;28;20791;-93
2022/04/23 00:32:31;;;;;;;2.80;2.60;;;24.20;53.60;;;;;;5053889;28;20450;-94
2022/04/23 00:34:59;;;;;;;2.70;2.50;;;24.20;53.60;;;;;;5053750;28;20445;-92
2022/04/23 00:37:26;;;;;;;2.40;2.20;;;24.20;53.60;;;;;;5053758;28;20445;-92
2022/04/23 00:39:53;;;;;;;2.63;2.43;;;24.20;53.60;;;;;;5053728;28;20445;-87
2022/04/23 00:42:20;;;;;;;3.10;2.90;;;24.20;53.60;;;;;;5035546;28;20481;-94
2022/04/23 00:44:47;;;;;;;2.37;2.17;;;24.20;53.60;;;;;;5036031;28;20446;-94
2022/04/23 00:47:14;;;;;;;2.50;2.40;;;24.20;53.60;;;;;;5019660;28;20496;-93
2022/04/23 00:49:41;;;;;;;2.83;2.63;;;24.20;53.60;;;;;;5035756;28;20495;-93
2022/04/23 00:52:10;;;;;;;2.80;2.60;;;24.20;53.60;;;;;;5053474;28;20444;-94
2022/04/23 00:54:38;;;;;;;2.17;2.07;;;24.20;53.60;;;;;;5053736;28;20444;-94
2022/04/23 00:57:07;;;;;;;2.37;2.17;;;24.20;53.60;;;;;;5035325;28;20484;-86
2022/04/23 00:59:34;;;;;;;2.23;2.13;;;24.20;53.70;;;;;;5053385;28;20948;-93
2022/04/23 01:02:03;;;;;;;2.43;2.23;;;24.20;53.60;;;;;;5053019;28;20481;-94
2022/04/23 01:04:30;;;;;;;2.80;2.60;;;24.20;53.60;;;;;;5053445;28;20484;-93
2022/04/23 01:06:57;;;;;;;2.30;2.20;;;24.20;53.60;;;;;;5053465;28;20467;-86
2022/04/23 01:09:26;;;;;;;2.03;1.93;;;24.20;53.70;;;;;;5053239;28;20477;-93
2022/04/23 01:11:54;;;;;;;2.30;2.20;;;24.20;53.60;;;;;;5053742;28;20448;-87
2022/04/23 01:14:21;;;;;;;3.00;2.80;;;24.20;53.60;;;;;;5053112;28;20445;-94
2022/04/23 01:16:48;;;;;;;2.47;2.37;;;24.10;53.60;;;;;;5052940;28;20444;-92
2022/04/23 01:19:15;;;;;;;2.80;2.60;;;24.20;53.60;;;;;;5053454;28;20472;-93
2022/04/23 01:21:43;;;;;;;2.00;1.90;;;24.20;53.70;;;;;;5053400;28;20493;-92
2022/04/23 01:24:10;;;;;;;2.60;2.40;;;24.20;53.60;;;;;;5057061;28;20446;-94
2022/04/23 01:26:37;;;;;;;2.90;2.70;;;24.10;53.60;;;;;;5056847;28;20446;-93
2022/04/23 01:29:04;;;;;;;2.90;2.70;;;24.20;53.70;;;;;;5056746;28;20508;-90
2022/04/23 01:31:30;;;;;;;2.37;2.27;;;24.10;53.60;;;;;;5056895;28;20446;-93
2022/04/23 01:33:57;;;;;;;2.40;2.20;;;24.10;53.60;;;;;;5056515;28;20437;-94
2022/04/23 01:36:24;;;;;;;2.63;2.43;;;24.10;53.60;;;;;;5056573;28;20534;-87
2022/04/23 01:38:52;;;;;;;2.20;2.10;;;24.10;53.60;;;;;;5056419;28;20972;-87
2022/04/23 01:41:19;;;;;;;2.70;2.50;;;24.10;53.60;;;;;;5056384;28;20474;-93
2022/04/23 01:43:46;;;;;;;2.33;2.23;;;24.10;53.60;;;;;;5056485;28;20445;-93
2022/04/23 01:46:13;;;;;;;2.90;2.70;;;24.20;53.60;;;;;;5056633;28;20459;-88
2022/04/23 01:48:39;;;;;;;2.73;2.53;;;24.20;53.70;;;;;;5056306;28;20922;-95
2022/04/23 01:51:06;;;;;;;2.63;2.20;;;24.20;53.60;;;;;;5056626;28;20438;-94
2022/04/23 01:53:33;;;;;;;2.87;2.67;;;24.10;53.90;;;;;;5056754;28;20437;-87
2022/04/23 01:56:01;;;;;;;2.33;2.23;;;24.10;53.60;;;;;;5056167;28;21023;-94
2022/04/23 01:58:28;;;;;;;2.30;2.20;;;24.10;53.60;;;;;;5056432;28;20454;-89
2022/04/23 02:00:55;;;;;;;3.20;2.97;;;24.10;53.60;;;;;;5056126;28;20936;-92
2022/04/23 02:03:22;;;;;;;2.70;2.60;;;24.10;53.60;;;;;;5056267;28;20441;-95
2022/04/23 02:05:49;;;;;;;3.27;3.07;;;24.10;53.60;;;;;;5056329;28;20437;-94
2022/04/23 02:08:17;;;;;;;2.97;2.77;;;24.10;53.50;;;;;;5055795;28;20506;-90
2022/04/23 02:10:45;;;;;;;2.77;2.57;;;24.10;53.50;;;;;;5056288;28;20452;-93
2022/04/23 02:13:13;;;;;;;2.67;2.47;;;24.10;53.60;;;;;;5056014;28;20906;-93
2022/04/23 02:15:41;;;;;;;2.87;2.77;;;24.20;53.60;;;;;;5056182;28;20445;-95
2022/04/23 02:18:08;;;;;;;2.90;2.70;;;24.10;53.50;;;;;;5056009;28;20495;-93
2022/04/23 02:20:35;;;;;;;2.43;2.33;;;24.10;53.50;;;;;;5056113;28;20533;-93
2022/04/23 02:23:02;;;;;;;2.93;2.60;;;24.10;53.50;;;;;;5055593;28;21006;-93
2022/04/23 02:25:29;;;;;;;2.43;2.33;;;24.10;53.50;;;;;;5056120;28;20438;-95
2022/04/23 02:27:56;;;;;;;2.33;2.20;;;24.10;53.50;;;;;;5055746;28;20462;-91
2022/04/23 02:30:24;;;;;;;2.80;2.60;;;24.10;53.60;;;;;;5055798;28;20440;-90
2022/04/23 02:32:51;;;;;;;2.37;2.27;;;24.10;53.60;;;;;;5055581;28;20434;-93
2022/04/23 02:35:19;;;;;;;2.87;2.67;;;24.10;53.60;;;;;;5055309;28;20441;-92
2022/04/23 02:37:47;;;;;;;2.93;2.73;;;24.10;53.50;;;;;;5055593;28;20438;-94
2022/04/23 02:40:15;;;;;;;2.90;2.70;;;24.10;53.60;;;;;;5055628;28;20446;-94
2022/04/23 02:42:42;;;;;;;2.67;2.47;;;24.10;53.60;;;;;;5055370;28;20488;-93
2022/04/23 02:45:10;;;;;;;3.30;2.93;;;24.20;53.60;;;;;;5055154;28;20442;-95
2022/04/23 02:47:46;;;;;;;2.80;2.60;;;24.10;53.60;;;;;;5055509;28;20449;-94
2022/04/23 02:50:14;;;;;;;2.43;2.27;;;24.10;53.60;;;;;;5055385;28;20811;-87
2022/04/23 02:52:42;;;;;;;2.77;2.57;;;24.10;53.60;;;;;;5055068;28;20434;-93
2022/04/23 02:55:09;;;;;;;3.03;2.83;;;24.10;53.60;;;;;;5055272;28;20441;-87
2022/04/23 02:57:36;;;;;;;3.07;2.77;;;24.10;53.60;;;;;;5054902;28;20485;-95
2022/04/23 03:00:04;;;;;;;2.73;2.53;;;24.20;53.70;;;;;;5055208;28;20936;-90
2022/04/23 03:02:36;;;;;;;2.90;2.70;;;24.10;53.60;;;;;;5054891;28;20477;-94
2022/04/23 03:05:05;;;;;;;2.90;2.70;;;24.10;53.60;;;;;;5055514;28;20457;-93
2022/04/23 03:07:33;;;;;;;3.63;3.40;;;24.10;53.60;;;;;;5055184;28;20441;-94
2022/04/23 03:09:59;;;;;;;2.70;2.50;;;24.10;53.90;;;;;;5055084;28;20430;-95
2022/04/23 03:12:26;;;;;;;2.97;2.77;;;24.10;53.60;;;;;;5054462;28;20450;-85
2022/04/23 03:14:55;;;;;;;2.63;2.53;;;24.10;53.60;;;;;;5055389;28;20452;-87
2022/04/23 03:17:23;;;;;;;3.10;2.90;;;24.10;53.60;;;;;;5054798;28;20441;-96
2022/04/23 03:19:54;;;;;;;2.67;2.50;;;24.10;53.60;;;;;;5054808;28;20936;-89
2022/04/23 03:22:22;;;;;;;2.43;2.33;;;24.20;53.70;;;;;;5054409;28;20477;-93
2022/04/23 03:24:52;;;;;;;2.63;2.53;;;24.10;53.60;;;;;;5054248;28;20438;-95
2022/04/23 03:27:21;;;;;;;2.93;2.73;;;24.10;53.60;;;;;;5054115;28;20960;-87
2022/04/23 03:29:48;;;;;;;3.30;3.10;;;24.10;53.60;;;;;;5054189;28;20441;-87
2022/04/23 03:32:18;;;;;;;3.20;3.00;;;24.10;53.60;;;;;;5054733;28;20446;-95
2022/04/23 03:34:45;;;;;;;2.87;2.77;;;24.10;53.60;;;;;;5054798;28;20446;-87
2022/04/23 03:37:12;;;;;;;2.73;2.63;;;24.10;53.70;;;;;;5054099;28;20536;-93
2022/04/23 03:39:40;;;;;;;2.90;2.70;;;24.20;53.70;;;;;;5053916;28;20438;-85
2022/04/23 03:42:07;;;;;;;2.60;2.40;;;24.10;53.60;;;;;;5054247;28;20477;-85
2022/04/23 03:44:34;;;;;;;3.40;3.20;;;24.00;54.10;;;;;;5053330;28;20496;-94
2022/04/23 03:47:05;;;;;;;3.30;3.10;;;24.10;53.60;;;;;;5054128;28;20449;-94
2022/04/23 03:49:33;;;;;;;2.77;2.60;;;24.10;53.60;;;;;;5054975;28;20468;-92
2022/04/23 03:52:06;;;;;;;2.67;2.47;;;24.10;53.70;;;;;;5054391;28;20452;-94
2022/04/23 03:54:33;;;;;;;3.00;2.80;;;24.10;53.70;;;;;;5054305;28;20442;-93
2022/04/23 03:57:01;;;;;;;2.60;2.50;;;24.00;53.60;;;;;;5054144;28;20450;-95
2022/04/23 03:59:29;;;;;;;3.13;2.93;;;24.00;53.60;;;;;;5054387;28;20450;-94
2022/04/23 04:01:56;;;;;;;3.20;3.00;;;24.00;53.50;;;;;;5054081;28;20619;-94
2022/04/23 04:04:23;;;;;;;3.07;2.87;;;24.00;53.60;;;;;;5054501;28;20442;-94
2022/04/23 04:06:51;;;;;;;3.13;2.93;;;24.00;53.60;;;;;;5053607;28;20933;-93
2022/04/23 04:09:19;;;;;;;3.00;2.80;;;24.00;53.50;;;;;;5037999;28;21007;-94
2022/04/23 04:12:06;;;;;;;3.57;3.37;;;24.00;53.50;;;;;;5033777;28;20438;-94
2022/04/23 04:14:36;;;;;;;2.87;2.67;;;24.00;53.50;;;;;;5033617;28;20953;-89
2022/04/23 04:17:06;;;;;;;2.90;2.70;;;24.00;53.60;;;;;;5033462;28;20526;-90
2022/04/23 04:19:35;;;;;;;3.40;3.20;;;24.00;53.60;;;;;;5033772;28;20449;-85
2022/04/23 04:22:03;;;;;;;2.50;2.30;;;24.00;54.20;;;;;;5033743;28;20488;-93
2022/04/23 04:24:30;;;;;;;3.20;3.00;;;24.00;53.60;;;;;;5033745;28;20516;-95
2022/04/23 04:26:58;;;;;;;2.90;2.70;;;24.00;53.60;;;;;;5033845;28;20922;-94
2022/04/23 04:29:26;;;;;;;3.03;2.90;;;24.00;53.60;;;;;;5033703;28;20472;-91
2022/04/23 04:31:54;;;;;;;3.07;2.87;;;24.00;53.60;;;;;;5034252;28;20434;-93
2022/04/23 04:34:23;;;;;;;2.80;2.70;;;24.00;53.60;;;;;;5034418;28;20458;-94
2022/04/23 04:36:51;;;;;;;3.03;2.83;;;24.00;53.60;;;;;;5034015;28;20446;-94
2022/04/23 04:39:19;;;;;;;2.77;2.57;;;24.00;53.60;;;;;;5033949;28;20453;-95
2022/04/23 04:41:46;;;;;;;3.23;3.03;;;24.10;53.70;;;;;;5033416;28;20443;-91
2022/04/23 04:44:13;;;;;;;2.93;2.73;;;24.00;53.60;;;;;;5033709;28;20965;-86
2022/04/23 04:46:40;;;;;;;3.40;3.20;;;24.00;53.60;;;;;;5033457;28;20442;-88
2022/04/23 04:49:09;;;;;;;2.70;2.60;;;24.10;53.70;;;;;;5033017;28;20438;-88
2022/04/23 04:51:36;;;;;;;2.80;2.60;;;24.00;53.60;;;;;;5033490;28;20446;-86
2022/04/23 04:54:04;;;;;;;3.50;3.30;;;24.00;53.60;;;;;;5033040;28;20450;-86
2022/04/23 04:56:30;;;;;;;3.60;3.40;;;24.00;53.60;;;;;;5033787;28;20445;-93
2022/04/23 04:58:57;;;;;;;3.20;3.00;;;24.00;53.60;;;;;;5037530;28;20462;-92
2022/04/23 05:01:24;;;;;;;2.77;2.57;;;24.00;53.60;;;;;;5037504;28;20788;-87
2022/04/23 05:03:53;;;;;;;3.80;3.50;;;24.00;53.60;;;;;;5036926;28;20482;-88
2022/04/23 05:06:22;;;;;;;3.10;2.90;;;24.00;53.50;;;;;;5036853;28;20525;-91
2022/04/23 05:08:49;;;;;;;3.30;3.10;;;24.10;53.70;;;;;;5036907;28;20498;-90
2022/04/23 05:11:15;;;;;;;2.90;2.70;;;24.00;53.60;;;;;;5037300;28;20456;-88
2022/04/23 05:13:42;;;;;;;3.07;2.87;;;24.10;53.70;;;;;;5037231;28;20815;-87
2022/04/23 05:16:09;;;;;;;2.83;2.63;;;24.10;53.70;;;;;;5037295;28;20438;-94
2022/04/23 05:18:36;;;;;;;3.00;2.80;;;24.00;53.50;;;;;;5036783;28;20446;-94
2022/04/23 05:21:03;;;;;;;2.63;2.53;;;24.00;53.60;;;;;;5036845;28;20438;-94
2022/04/23 05:23:31;;;;;;;2.90;2.70;;;24.00;53.60;;;;;;5036841;28;21023;-87
2022/04/23 05:25:58;;;;;;;3.23;3.03;;;24.00;53.60;;;;;;5036912;28;20446;-94
2022/04/23 05:28:25;;;;;;;3.30;3.10;;;24.10;53.70;;;;;;5037445;28;20820;-94
2022/04/23 05:30:52;;;;;;;3.30;3.10;;;24.00;53.60;;;;;;5036774;28;20438;-95
2022/04/23 05:33:18;;;;;;;3.40;3.20;;;24.10;53.60;;;;;;5036682;28;20439;-94
2022/04/23 05:35:45;;;;;;;2.73;2.57;;;24.00;53.60;;;;;;5036857;28;20434;-87
2022/04/23 05:38:12;;;;;;;3.30;3.10;;;23.90;53.50;;;;;;5036702;28;20438;-92
2022/04/23 05:40:40;;;;;;;3.10;2.90;;;24.00;53.60;;;;;;5036798;28;20450;-93
2022/04/23 05:43:08;;;;;;;3.00;2.80;;;23.90;53.50;;;;;;5036823;28;20482;-95
2022/04/23 05:45:35;;;;;;;3.30;3.10;;;23.90;53.50;;;;;;5036409;28;20445;-90
2022/04/23 05:48:02;;;;;;;3.13;2.90;;;24.00;53.60;;;;;;5036494;28;20447;-92
2022/04/23 05:50:29;;;;;;;3.10;2.90;;;24.00;53.60;;;;;;5036579;28;20450;-88
2022/04/23 05:52:56;;;;;;;3.50;3.30;;;23.90;53.50;;;;;;5036428;28;20446;-87
2022/04/23 05:55:23;;;;;;;3.10;2.90;;;23.90;53.60;;;;;;5036673;28;20439;-87
2022/04/23 05:57:51;;;;;;;3.37;3.17;;;24.00;53.60;;;;;;5036205;28;20974;-93
2022/04/23 06:00:18;;;;;;;3.33;3.13;;;24.00;53.60;;;;;;5036106;28;20824;-87
2022/04/23 06:02:45;;;;;;;3.23;3.03;;;23.90;53.50;;;;;;5018494;28;20513;-87
2022/04/23 06:05:12;;;;;;;3.60;3.40;;;23.90;53.60;;;;;;5018330;28;20442;-90
2022/04/23 06:07:39;;;;;;;3.30;3.10;;;24.00;53.60;;;;;;5017518;28;20525;-89
2022/04/23 06:10:07;;;;;;;3.40;3.20;;;23.90;53.50;;;;;;5018417;28;20493;-87
2022/04/23 06:12:35;;;;;;;3.00;2.80;;;23.90;53.60;;;;;;5035886;28;20454;-88
2022/04/23 06:15:03;;;;;;;3.50;3.20;;;23.90;53.50;;;;;;5035726;28;20815;-87
2022/04/23 06:17:30;;;;;;;3.60;3.40;;;23.90;53.60;;;;;;5035795;28;20443;-87
2022/04/23 06:19:57;;;;;;;3.37;3.17;;;23.90;53.60;;;;;;5036061;28;20454;-94
2022/04/23 06:22:24;;;;;;;2.67;2.53;;;24.00;53.60;;;;;;5036192;28;20447;-87
2022/04/23 06:24:51;;;;;;;3.50;3.30;;;23.90;53.60;;;;;;5035726;28;20450;-94
2022/04/23 06:27:19;;;;;;;3.67;3.40;;;23.90;53.60;;;;;;5035473;28;20454;-86
2022/04/23 06:29:45;;;;;;;3.30;3.10;;;23.90;53.60;;;;;;5035845;28;20443;-93
2022/04/23 06:32:13;;;;;;;3.60;3.40;;;23.90;53.60;;;;;;5035375;28;20447;-94
2022/04/23 06:34:41;;;;;;;3.33;3.13;;;23.90;53.60;;;;;;5035239;28;20427;-87
2022/04/23 06:37:08;;;;;;;3.47;3.27;;;23.90;53.60;;;;;;5035061;28;20779;-87
2022/04/23 06:39:35;;;;;;;4.20;3.90;;;23.90;53.60;;;;;;5035507;28;20442;-87
2022/04/23 06:42:02;;;;;;;3.30;3.10;;;23.90;53.50;;;;;;5035351;28;20769;-87
2022/04/23 06:44:28;;;;;;;3.30;3.10;;;23.90;53.60;;;;;;5035700;28;20490;-87
2022/04/23 06:46:55;;;;;;;3.27;3.07;;;23.90;53.60;;;;;;5036303;28;20449;-86
2022/04/23 06:49:26;;;;;;;3.33;3.13;;;23.90;53.40;;;;;;5036207;28;20447;-87
2022/04/23 06:51:52;;;;;;;3.07;2.87;;;23.90;53.40;;;;;;5035966;28;20430;-90
2022/04/23 06:54:19;;;;;;;3.90;3.70;;;23.90;53.40;;;;;;5034942;28;20859;-86
2022/04/23 06:56:46;;;;;;;3.90;3.70;;;24.00;53.40;;;;;;5034762;28;20937;-86
2022/04/23 06:59:13;;;;;;;5.63;3.60;;;24.00;53.30;;;;;;5034595;28;20439;-88
2022/04/23 07:01:41;;;;;;;3.17;2.97;;;24.00;53.30;;;;;;5034759;28;20492;-89
2022/04/23 07:04:08;;;;;;;2.93;2.73;;;24.10;53.50;;;;;;5034717;28;20490;-86
2022/04/23 07:06:36;;;;;;;3.40;3.20;;;24.00;53.30;;;;;;5034485;28;20438;-86
2022/04/23 07:09:04;;;;;;;3.80;3.60;;;24.10;53.50;;;;;;5035138;28;21267;-87
2022/04/23 07:11:31;;;;;;;3.57;3.37;;;24.00;53.40;;;;;;5036271;28;20446;-87
2022/04/23 07:13:58;;;;;;;3.77;3.50;;;24.00;53.40;;;;;;5034978;28;20930;-94
2022/04/23 07:16:24;;;;;;;3.07;2.87;;;24.00;53.30;;;;;;5034684;28;20455;-87
2022/04/23 07:18:52;;;;;;;3.23;3.03;;;24.10;53.30;;;;;;5034722;28;20469;-87
2022/04/23 07:21:19;;;;;;;2.90;2.80;;;24.10;53.20;;;;;;5033861;28;20443;-87
2022/04/23 07:24:08;;;;;;;12.13;11.13;;;24.10;53.10;;;;;;5034076;28;20493;-86
2022/04/23 07:26:36;;;;;;;8.90;8.13;;;24.10;53.60;;;;;;5034264;28;20447;-86
2022/04/23 07:29:05;;;;;;;9.77;9.07;;;24.10;53.60;;;;;;5034018;28;20477;-86
2022/04/23 07:31:32;;;;;;;10.80;9.80;;;24.10;53.80;;;;;;5034072;28;20446;-86
2022/04/23 07:39:29;;;;;;;5.57;5.17;;;24.00;53.50;;;;;;5033957;28;20645;-84
2022/04/23 07:41:55;;;;;;;6.70;5.73;;;24.00;53.40;;;;;;5033829;28;20534;-84
2022/04/23 07:44:22;;;;;;;6.23;5.73;;;24.00;53.30;;;;;;5033480;28;20485;-84
2022/04/23 07:46:49;;;;;;;5.97;5.57;;;24.00;53.30;;;;;;5033841;28;20438;-86
2022/04/23 07:49:16;;;;;;;6.73;6.23;;;24.00;53.30;;;;;;5033718;28;20443;-83
2022/04/23 07:51:43;;;;;;;8.40;6.73;;;24.00;53.30;;;;;;5033615;28;20439;-88
2022/04/23 07:54:10;;;;;;;6.30;5.90;;;24.00;53.30;;;;;;5033596;28;20431;-83
2022/04/23 07:56:38;;;;;;;6.70;6.17;;;24.00;53.30;;;;;;5033733;28;20438;-84
2022/04/23 07:59:05;;;;;;;8.10;6.20;;;24.10;53.40;;;;;;5033851;28;20530;-84
2022/04/23 08:01:32;;;;;;;7.00;6.50;;;24.00;53.30;;;;;;5033748;28;20926;-84
2022/04/23 08:03:59;;;;;;;7.07;6.53;;;24.00;53.30;;;;;;5033660;28;20486;-89
2022/04/23 08:06:25;;;;;;;6.67;6.17;;;24.00;53.30;;;;;;5033425;28;20442;-84
2022/04/23 08:08:52;;;;;;;8.40;7.63;;;24.20;53.40;;;;;;5033432;28;20981;-85
2022/04/23 08:11:19;;;;;;;7.57;7.07;;;24.20;53.40;;;;;;5033273;28;20435;-88
2022/04/23 08:13:48;;;;;;;7.93;7.33;;;24.00;53.30;;;;;;5033414;28;20450;-84
2022/04/23 08:16:15;;;;;;;7.33;6.83;;;24.00;53.30;;;;;;5033531;28;20450;-83
2022/04/23 08:18:41;;;;;;;7.73;7.10;;;24.00;53.30;;;;;;5033420;28;20431;-87
2022/04/23 08:21:08;;;;;;;8.47;7.73;;;24.00;53.40;;;;;;5033008;28;20438;-87
2022/04/23 08:23:35;;;;;;;8.03;7.50;;;24.00;53.40;;;;;;5033053;28;20486;-88
2022/04/23 08:26:05;;;;;;;7.30;6.80;;;24.00;53.50;;;;;;5032991;28;20446;-83
2022/04/23 08:31:17;;;;;;;8.10;7.50;;;24.10;53.60;;;;;;5014357;28;20926;-83
2022/04/23 08:33:59;;;;;;;7.10;6.60;;;24.10;53.50;;;;;;5027527;28;20435;-90
2022/04/23 08:36:29;;;;;;;7.43;6.70;;;24.10;53.50;;;;;;5037278;28;20525;-91
2022/04/23 08:38:56;;;;;;;7.30;6.70;;;24.10;53.50;;;;;;5037247;28;20443;-88
2022/04/23 08:41:28;;;;;;;7.50;6.93;;;24.10;53.50;;;;;;5037391;28;20486;-85
2022/04/23 08:43:56;;;;;;;8.23;7.63;;;24.10;53.60;;;;;;5037219;28;20479;-85
2022/04/23 08:46:26;;;;;;;6.93;6.43;;;24.10;53.70;;;;;;5037063;28;20930;-84
2022/04/23 08:49:00;;;;;;;8.13;7.53;;;24.10;53.70;;;;;;5036859;28;20469;-85
2022/04/23 08:51:30;;;;;;;7.30;6.80;;;24.10;53.60;;;;;;5037119;28;20443;-88
2022/04/23 08:53:58;;;;;;;6.57;6.07;;;24.10;53.60;;;;;;5037639;28;20450;-86
2022/04/23 08:56:25;;;;;;;6.67;6.17;;;24.20;53.50;;;;;;5037123;28;20875;-86
2022/04/23 08:58:52;;;;;;;6.57;6.07;;;24.20;53.60;;;;;;5037041;28;20528;-86
2022/04/23 09:01:19;;;;;;;7.33;6.70;;;24.30;53.80;;;;;;5037040;28;20445;-87
2022/04/23 09:03:47;;;;;;;8.40;7.70;;;24.30;53.70;;;;;;5037094;28;20910;-85
2022/04/23 09:06:14;;;;;;;7.60;6.90;;;24.30;53.70;;;;;;5041947;28;20942;-85
2022/04/23 09:09:06;;;;;;;8.03;6.40;;;24.30;53.60;;;;;;5042470;28;20474;-86
2022/04/23 09:11:35;;;;;;;6.77;6.27;;;24.40;53.70;;;;;;5039585;28;20788;-84
2022/04/23 09:14:02;;;;;;;7.27;6.77;;;24.40;53.80;;;;;;5037235;28;20453;-85
2022/04/23 09:24:45;;;;;;;16.07;12.27;;;24.50;54.30;;;;;;4964154;28;20528;-85
2022/04/23 09:27:14;;;;;;;13.67;12.37;;;24.60;54.50;;;;;;4977929;28;20501;-83
2022/04/23 09:32:28;;;;;;;13.60;11.67;;;24.60;54.70;;;;;;5034576;23;20536;-91
2022/04/23 09:35:12;;;;;;;11.20;10.10;;;24.60;54.70;;;;;;5035944;28;20442;-84
2022/04/23 09:40:27;;;;;;;15.20;10.90;;;24.70;54.30;;;;;;5048921;22;20802;-84
2022/04/23 09:47:55;;;;;;;11.47;9.90;;;24.80;55.00;;;;;;3397569;23;20778;-83
2022/04/23 09:50:24;;;;;;;12.73;9.87;;;24.80;55.00;;;;;;5037011;28;20817;-83
2022/04/23 09:52:51;;;;;;;19.60;10.60;;;24.80;55.10;;;;;;5034407;28;20446;-83
2022/04/23 09:55:20;;;;;;;12.03;9.93;;;24.90;55.20;;;;;;5035529;28;20447;-84
2022/04/23 09:57:48;;;;;;;9.97;8.97;;;24.80;54.30;;;;;;5038206;28;21043;-84
2022/04/23 10:00:16;;;;;;;10.33;9.33;;;24.90;54.20;;;;;;5044907;28;20426;-83
2022/04/23 10:02:45;;;;;;;11.33;9.37;;;24.90;54.80;;;;;;5052803;22;20496;-83
2022/04/23 10:05:16;;;;;;;12.47;8.83;;;25.00;55.10;;;;;;5046531;28;20995;-84
2022/04/23 10:07:48;;;;;;;11.67;8.50;;;25.00;55.00;;;;;;5027412;23;20515;-84
2022/04/23 10:10:18;;;;;;;10.00;9.03;;;25.00;55.10;;;;;;5067667;28;20438;-92
2022/04/23 10:12:46;;;;;;;10.00;8.97;;;25.10;55.10;;;;;;5055801;28;20438;-85
2022/04/23 10:15:16;;;;;;;12.93;9.20;;;25.10;55.20;;;;;;5055711;28;20430;-85
2022/04/23 10:17:44;;;;;;;9.70;8.70;;;25.10;55.20;;;;;;5039226;28;20442;-85
2022/04/23 10:20:13;;;;;;;9.20;7.87;;;25.20;55.30;;;;;;5056592;28;20438;-85
2022/04/23 10:22:54;;;;;;;8.97;8.17;;;25.30;55.40;;;;;;5057240;28;20449;-84
2022/04/23 10:25:30;;;;;;;12.83;8.17;;;25.20;55.40;;;;;;5055947;28;20568;-84
2022/04/23 10:27:59;;;;;;;14.30;8.23;;;25.20;55.40;;;;;;5040805;28;20462;-84
2022/04/23 10:30:28;;;;;;;10.47;9.47;;;25.20;55.50;;;;;;5037979;28;20438;-84
2022/04/23 10:32:55;;;;;;;13.53;7.70;;;25.30;55.50;;;;;;5036672;28;20446;-84
2022/04/23 10:35:35;;;;;;;9.80;8.80;;;25.30;55.20;;;;;;5038059;28;20450;-83
2022/04/23 10:38:22;;;;;;;9.40;8.60;;;25.40;54.90;;;;;;5037358;28;20442;-84
2022/04/23 10:40:53;;;;;;;8.87;8.10;;;25.40;54.60;;;;;;5038178;28;20451;-84
2022/04/23 10:43:20;;;;;;;9.97;9.07;;;25.30;54.40;;;;;;5037793;28;20922;-84
2022/04/23 10:45:48;;;;;;;9.07;8.27;;;25.30;54.40;;;;;;5036026;28;20486;-84
2022/04/23 10:48:26;;;;;;;8.93;8.23;;;25.30;54.30;;;;;;5039013;28;20439;-84
2022/04/23 10:51:08;;;;;;;9.67;8.87;;;25.30;53.80;;;;;;5038970;28;20454;-84
2022/04/23 10:53:56;;;;;;;10.10;9.23;;;25.30;54.60;;;;;;5038531;28;20457;-84
2022/04/23 10:56:26;;;;;;;10.23;8.77;;;25.20;54.00;;;;;;5037160;28;20431;-84
2022/04/23 10:58:53;;;;;;;9.23;8.40;;;25.20;54.10;;;;;;5038764;28;20443;-84
2022/04/23 11:01:25;;;;;;;10.30;9.13;;;25.20;54.10;;;;;;5038135;28;20493;-84
2022/04/23 11:03:59;;;;;;;9.20;8.30;;;25.20;54.20;;;;;;5036613;28;20802;-84
2022/04/23 11:12:24;;;;;;;9.53;8.67;;;25.20;53.90;;;;;;4993294;28;20423;-84
2022/04/23 11:14:55;;;;;;;10.33;9.53;;;25.20;54.10;;;;;;5035445;28;20446;-84
2022/04/23 11:17:23;;;;;;;9.23;8.53;;;25.30;54.10;;;;;;5036222;28;20434;-84
2022/04/23 11:19:52;;;;;;;9.27;8.57;;;25.20;53.90;;;;;;5036275;28;20917;-85
2022/04/23 11:22:20;;;;;;;9.10;8.40;;;25.20;53.80;;;;;;5035465;28;20438;-88
2022/04/23 11:24:49;;;;;;;8.90;8.20;;;25.20;53.70;;;;;;5036369;28;20546;-84
2022/04/23 11:27:26;;;;;;;12.90;8.70;;;25.20;52.90;;;;;;5035647;28;20463;-87
2022/04/23 11:29:53;;;;;;;9.40;8.60;;;25.20;52.90;;;;;;5043078;28;20435;-87
2022/04/23 11:32:26;;;;;;;9.03;8.33;;;25.10;52.90;;;;;;5037457;28;20483;-86
2022/04/23 11:34:57;;;;;;;12.33;8.90;;;25.10;53.10;;;;;;5035077;28;20987;-85
2022/04/23 11:37:29;;;;;;;10.17;8.40;;;25.00;53.20;;;;;;5031555;28;20493;-86
2022/04/23 11:40:06;;;;;;;9.97;9.10;;;25.00;53.20;;;;;;5037955;28;20431;-94
2022/04/23 11:42:40;;;;;;;9.70;8.67;;;25.00;53.10;;;;;;5034099;28;20808;-84
2022/04/23 11:45:08;;;;;;;14.13;11.53;;;25.00;53.10;;;;;;5033753;28;20900;-84
2022/04/23 11:47:35;;;;;;;11.20;10.20;;;24.90;53.00;;;;;;5033919;28;20446;-83
2022/04/23 11:50:09;;;;;;;9.07;8.30;;;24.90;52.80;;;;;;5033874;28;20529;-85
2022/04/23 11:52:36;;;;;;;9.17;8.47;;;25.00;53.50;;;;;;5033543;28;20446;-82
2022/04/23 11:55:05;;;;;;;9.10;8.30;;;24.90;53.70;;;;;;5033477;28;20453;-82
2022/04/23 11:57:32;;;;;;;9.30;8.40;;;25.00;54.00;;;;;;5033878;28;20474;-81
2022/04/23 12:00:01;;;;;;;10.30;8.70;;;25.10;54.20;;;;;;5033437;28;20447;-82
2022/04/23 12:02:29;;;;;;;9.07;8.17;;;25.10;54.00;;;;;;5023452;28;20444;-82
2022/04/23 12:04:57;;;;;;;7.90;7.30;;;25.20;54.10;;;;;;5013765;28;20846;-82
2022/04/23 12:07:25;;;;;;;9.17;8.27;;;25.20;54.30;;;;;;5013263;28;20776;-82
2022/04/23 12:09:54;;;;;;;13.63;8.10;;;25.20;54.30;;;;;;5015349;28;20507;-82
2022/04/23 12:12:24;;;;;;;11.60;7.73;;;25.30;54.30;;;;;;5022003;28;20427;-84
2022/04/23 12:14:53;;;;;;;9.10;8.20;;;25.20;54.40;;;;;;5022767;28;20450;-90
2022/04/23 12:17:22;;;;;;;10.70;7.93;;;25.20;54.40;;;;;;5019280;28;20923;-83
2022/04/23 12:19:49;;;;;;;8.97;8.10;;;25.20;54.30;;;;;;5033329;28;20449;-84
2022/04/23 12:22:26;;;;;;;8.80;8.10;;;25.20;54.40;;;;;;5033329;28;20442;-84
2022/04/23 12:25:08;;;;;;;8.57;7.77;;;25.30;54.50;;;;;;5033157;28;20486;-83
2022/04/23 12:27:57;;;;;;;7.00;6.40;;;25.30;54.50;;;;;;5012717;28;20866;-84
2022/04/23 12:41:39;;;;;;;7.90;7.30;;;25.20;54.30;;;;;;5031259;28;20434;-81
2022/04/23 12:44:20;;;;;;;7.77;7.07;;;25.20;54.40;;;;;;5033264;28;20453;-82
2022/04/23 12:46:55;;;;;;;8.80;8.00;;;25.30;54.40;;;;;;5031450;28;20451;-81
2022/04/23 12:49:22;;;;;;;8.00;7.40;;;25.20;54.40;;;;;;5037928;28;20453;-81
2022/04/23 12:51:53;;;;;;;8.27;7.57;;;25.20;54.30;;;;;;5030790;28;20450;-80
2022/04/23 12:54:21;;;;;;;8.60;7.80;;;25.20;54.30;;;;;;5012301;28;20447;-83
2022/04/23 12:56:48;;;;;;;8.60;7.90;;;25.20;54.30;;;;;;5011075;28;20470;-83
2022/04/23 12:59:15;;;;;;;8.70;7.93;;;25.20;54.40;;;;;;5012570;28;20419;-84
2022/04/23 13:01:43;;;;;;;7.57;6.87;;;25.30;54.40;;;;;;5012634;28;20452;-82
2022/04/23 13:04:13;;;;;;;9.30;7.73;;;25.20;54.30;;;;;;5012555;28;20454;-83
2022/04/23 13:09:24;;;;;;;7.30;6.70;;;25.20;54.20;;;;;;5012860;28;20470;-84
2022/04/23 13:11:51;;;;;;;8.30;7.60;;;25.20;54.30;;;;;;5012858;28;20451;-84
2022/04/23 13:14:18;;;;;;;7.90;7.30;;;25.20;54.30;;;;;;5012896;28;20443;-82
2022/04/23 13:16:46;;;;;;;8.70;8.00;;;25.20;54.30;;;;;;5013093;28;20488;-82
2022/04/23 13:19:14;;;;;;;8.43;7.73;;;25.20;54.30;;;;;;5015341;28;20444;-82
2022/04/23 13:21:41;;;;;;;10.27;9.40;;;25.20;54.30;;;;;;5016531;28;20435;-82
2022/04/23 13:24:08;;;;;;;11.47;7.37;;;25.20;54.30;;;;;;5016523;28;20791;-83
2022/04/23 13:26:34;;;;;;;8.73;7.97;;;25.20;54.30;;;;;;5016286;28;20498;-82
2022/04/23 13:29:01;;;;;;;8.00;7.40;;;25.30;54.30;;;;;;5016135;28;20442;-82
2022/04/23 13:31:28;;;;;;;8.17;7.53;;;25.30;54.30;;;;;;5028149;28;20446;-83
2022/04/23 13:33:56;;;;;;;7.67;7.17;;;25.30;54.20;;;;;;5026484;28;20447;-85
2022/04/23 13:36:23;;;;;;;7.63;7.03;;;25.20;53.30;;;;;;5032816;28;20443;-80
2022/04/23 13:38:49;;;;;;;7.73;7.07;;;25.20;52.90;;;;;;5021023;28;20451;-81